sensor_id;sensor_type;location;lat;lon;timestamp;pressure;altitude;pressure_sealevel;temperature;humidity
21781;BME280;52576;53.614;9.894;2023-12-22T00:01:20;98610.03;;;5.08;61.58
21781;BME280;52576;53.614;9.894;2023-12-22T00:03:23;98624.81;;;5.07;61.57
21781;BME280;52576;53.614;9.894;2023-12-22T00:05:27;98605.91;;;5.05;61.75
21781;BME280;52576;53.614;9.894;2023-12-22T00:07:30;98602.38;;;5.06;61.71
21781;BME280;52576;53.614;9.894;2023-12-22T00:09:34;98604.25;;;5.04;61.80
21781;BME280;52576;53.614;9.894;2023-12-22T00:11:37;98600.03;;;5.03;62.26
21781;BME280;52576;53.614;9.894;2023-12-22T00:13:40;98602.84;;;5.00;62.38
21781;BME280;52576;53.614;9.894;2023-12-22T00:15:43;98603.09;;;4.97;62.55
21781;BME280;52576;53.614;9.894;2023-12-22T00:17:46;98610.16;;;4.95;62.93
21781;BME280;52576;53.614;9.894;2023-12-22T00:19:49;98613.03;;;4.92;62.79
21781;BME280;52576;53.614;9.894;2023-12-22T00:21:53;98614.78;;;4.92;63.01
21781;BME280;52576;53.614;9.894;2023-12-22T00:23:55;98619.16;;;4.91;62.85
21781;BME280;52576;53.614;9.894;2023-12-22T00:25:59;98611.38;;;4.91;62.70
21781;BME280;52576;53.614;9.894;2023-12-22T00:28:03;98629.53;;;4.91;62.72
21781;BME280;52576;53.614;9.894;2023-12-22T00:30:06;98628.59;;;4.92;62.78
21781;BME280;52576;53.614;9.894;2023-12-22T00:32:10;98632.84;;;4.93;62.74
21781;BME280;52576;53.614;9.894;2023-12-22T00:34:13;98614.53;;;4.95;62.65
21781;BME280;52576;53.614;9.894;2023-12-22T00:36:15;98621.38;;;4.96;62.65
21781;BME280;52576;53.614;9.894;2023-12-22T00:38:19;98620.31;;;4.98;62.64
21781;BME280;52576;53.614;9.894;2023-12-22T00:40:22;98623.63;;;5.00;62.47
21781;BME280;52576;53.614;9.894;2023-12-22T00:42:27;98623.50;;;5.02;62.75
21781;BME280;52576;53.614;9.894;2023-12-22T00:44:30;98635.53;;;5.03;63.14
21781;BME280;52576;53.614;9.894;2023-12-22T00:46:33;98613.00;;;5.03;65.17
21781;BME280;52576;53.614;9.894;2023-12-22T00:48:36;98646.03;;;5.01;66.93
21781;BME280;52576;53.614;9.894;2023-12-22T00:50:39;98622.19;;;4.96;67.77
21781;BME280;52576;53.614;9.894;2023-12-22T00:52:42;98621.06;;;4.89;69.41
21781;BME280;52576;53.614;9.894;2023-12-22T00:54:45;98631.91;;;4.83;70.22
21781;BME280;52576;53.614;9.894;2023-12-22T00:56:49;98635.78;;;4.77;70.52
21781;BME280;52576;53.614;9.894;2023-12-22T00:58:53;98623.28;;;4.71;71.09
21781;BME280;52576;53.614;9.894;2023-12-22T01:01:09;98631.44;;;4.67;71.47
21781;BME280;52576;53.614;9.894;2023-12-22T01:03:12;98630.97;;;4.62;71.74
21781;BME280;52576;53.614;9.894;2023-12-22T01:05:16;98622.69;;;4.57;71.84
21781;BME280;52576;53.614;9.894;2023-12-22T01:07:19;98627.41;;;4.52;72.10
21781;BME280;52576;53.614;9.894;2023-12-22T01:09:22;98634.47;;;4.50;72.18
21781;BME280;52576;53.614;9.894;2023-12-22T01:11:25;98645.06;;;4.47;72.65
21781;BME280;52576;53.614;9.894;2023-12-22T01:13:27;98657.34;;;4.44;72.62
21781;BME280;52576;53.614;9.894;2023-12-22T01:15:32;98671.34;;;4.42;73.01
21781;BME280;52576;53.614;9.894;2023-12-22T01:17:35;98683.75;;;4.38;73.22
21781;BME280;52576;53.614;9.894;2023-12-22T01:19:37;98691.03;;;4.33;74.19
21781;BME280;52576;53.614;9.894;2023-12-22T01:21:40;98685.94;;;4.21;74.42
21781;BME280;52576;53.614;9.894;2023-12-22T01:23:43;98704.59;;;4.02;76.95
21781;BME280;52576;53.614;9.894;2023-12-22T01:25:47;98721.00;;;3.79;77.85
21781;BME280;52576;53.614;9.894;2023-12-22T01:27:49;98708.84;;;3.55;78.66
21781;BME280;52576;53.614;9.894;2023-12-22T01:29:54;98716.38;;;3.34;79.97
21781;BME280;52576;53.614;9.894;2023-12-22T01:31:58;98706.44;;;3.16;80.36
21781;BME280;52576;53.614;9.894;2023-12-22T01:34:00;98705.34;;;2.94;80.98
21781;BME280;52576;53.614;9.894;2023-12-22T01:36:04;98725.75;;;2.73;82.42
21781;BME280;52576;53.614;9.894;2023-12-22T01:38:07;98717.66;;;2.53;82.88
21781;BME280;52576;53.614;9.894;2023-12-22T01:40:10;98690.44;;;2.34;83.58
21781;BME280;52576;53.614;9.894;2023-12-22T01:42:13;98689.91;;;2.17;83.94
21781;BME280;52576;53.614;9.894;2023-12-22T01:44:16;98707.25;;;2.02;84.64
21781;BME280;52576;53.614;9.894;2023-12-22T01:46:20;98714.94;;;1.89;85.45
21781;BME280;52576;53.614;9.894;2023-12-22T01:48:25;98726.81;;;1.79;86.63
21781;BME280;52576;53.614;9.894;2023-12-22T01:50:29;98715.19;;;1.72;86.99
21781;BME280;52576;53.614;9.894;2023-12-22T01:52:32;98698.31;;;1.66;87.83
21781;BME280;52576;53.614;9.894;2023-12-22T01:54:35;98705.53;;;1.61;88.29
21781;BME280;52576;53.614;9.894;2023-12-22T01:56:38;98706.63;;;1.57;88.62
21781;BME280;52576;53.614;9.894;2023-12-22T01:58:42;98702.41;;;1.56;89.26
21781;BME280;52576;53.614;9.894;2023-12-22T02:00:52;98702.31;;;1.58;89.75
21781;BME280;52576;53.614;9.894;2023-12-22T02:02:55;98698.81;;;1.59;90.64
21781;BME280;52576;53.614;9.894;2023-12-22T02:04:59;98695.09;;;1.63;91.08
21781;BME280;52576;53.614;9.894;2023-12-22T02:07:03;98695.75;;;1.66;91.58
21781;BME280;52576;53.614;9.894;2023-12-22T02:09:06;98679.97;;;1.71;91.90
21781;BME280;52576;53.614;9.894;2023-12-22T02:11:08;98705.50;;;1.76;92.17
21781;BME280;52576;53.614;9.894;2023-12-22T02:13:11;98679.28;;;1.82;92.28
21781;BME280;52576;53.614;9.894;2023-12-22T02:15:15;98693.63;;;1.86;92.78
21781;BME280;52576;53.614;9.894;2023-12-22T02:17:25;98689.00;;;1.91;92.59
21781;BME280;52576;53.614;9.894;2023-12-22T02:19:40;98688.81;;;1.94;92.86
21781;BME280;52576;53.614;9.894;2023-12-22T02:22:02;98673.94;;;1.97;93.50
21781;BME280;52576;53.614;9.894;2023-12-22T02:24:11;98683.06;;;2.03;94.06
21781;BME280;52576;53.614;9.894;2023-12-22T02:26:19;98665.69;;;2.05;94.16
21781;BME280;52576;53.614;9.894;2023-12-22T02:28:25;98675.72;;;2.10;94.29
21781;BME280;52576;53.614;9.894;2023-12-22T02:30:33;98667.66;;;2.14;94.41
21781;BME280;52576;53.614;9.894;2023-12-22T02:32:41;98654.34;;;2.20;94.39
21781;BME280;52576;53.614;9.894;2023-12-22T02:34:48;98648.78;;;2.26;95.12
21781;BME280;52576;53.614;9.894;2023-12-22T02:36:53;98656.13;;;2.32;95.21
21781;BME280;52576;53.614;9.894;2023-12-22T02:38:57;98657.44;;;2.38;95.51
21781;BME280;52576;53.614;9.894;2023-12-22T02:41:03;98644.22;;;2.43;95.73
21781;BME280;52576;53.614;9.894;2023-12-22T02:43:08;98658.59;;;2.47;95.85
21781;BME280;52576;53.614;9.894;2023-12-22T02:45:13;98668.00;;;2.48;95.51
21781;BME280;52576;53.614;9.894;2023-12-22T02:47:17;98681.16;;;2.45;95.48
21781;BME280;52576;53.614;9.894;2023-12-22T02:49:20;98701.09;;;2.43;95.63
21781;BME280;52576;53.614;9.894;2023-12-22T02:51:22;98703.78;;;2.41;95.54
21781;BME280;52576;53.614;9.894;2023-12-22T02:53:25;98709.06;;;2.39;95.62
21781;BME280;52576;53.614;9.894;2023-12-22T02:55:28;98716.81;;;2.39;95.49
21781;BME280;52576;53.614;9.894;2023-12-22T02:57:32;98719.50;;;2.38;95.26
21781;BME280;52576;53.614;9.894;2023-12-22T02:59:36;98710.81;;;2.39;95.13
21781;BME280;52576;53.614;9.894;2023-12-22T03:01:40;98712.56;;;2.38;95.09
21781;BME280;52576;53.614;9.894;2023-12-22T03:03:43;98715.25;;;2.37;94.72
21781;BME280;52576;53.614;9.894;2023-12-22T03:05:46;98724.25;;;2.31;94.06
21781;BME280;52576;53.614;9.894;2023-12-22T03:07:49;98699.75;;;2.24;93.69
21781;BME280;52576;53.614;9.894;2023-12-22T03:09:52;98723.41;;;2.18;93.45
21781;BME280;52576;53.614;9.894;2023-12-22T03:11:55;98700.53;;;2.12;93.32
21781;BME280;52576;53.614;9.894;2023-12-22T03:14:04;98701.03;;;2.04;92.91
21781;BME280;52576;53.614;9.894;2023-12-22T03:16:08;98705.59;;;2.01;92.32
21781;BME280;52576;53.614;9.894;2023-12-22T03:18:11;98716.09;;;1.98;92.29
21781;BME280;52576;53.614;9.894;2023-12-22T03:20:14;98730.16;;;1.94;92.50
21781;BME280;52576;53.614;9.894;2023-12-22T03:22:17;98719.19;;;1.90;91.96
21781;BME280;52576;53.614;9.894;2023-12-22T03:24:20;98709.88;;;1.88;91.35
21781;BME280;52576;53.614;9.894;2023-12-22T03:26:26;98711.72;;;1.86;91.41
21781;BME280;52576;53.614;9.894;2023-12-22T03:28:30;98720.38;;;1.85;91.22
21781;BME280;52576;53.614;9.894;2023-12-22T03:30:37;98721.31;;;1.84;91.41
21781;BME280;52576;53.614;9.894;2023-12-22T03:32:40;98716.25;;;1.82;91.76
21781;BME280;52576;53.614;9.894;2023-12-22T03:34:43;98700.75;;;1.82;91.71
21781;BME280;52576;53.614;9.894;2023-12-22T03:36:46;98698.28;;;1.81;91.80
21781;BME280;52576;53.614;9.894;2023-12-22T03:38:51;98688.78;;;1.81;92.07
21781;BME280;52576;53.614;9.894;2023-12-22T03:40:54;98691.25;;;1.83;91.94
21781;BME280;52576;53.614;9.894;2023-12-22T03:42:57;98704.91;;;1.85;92.05
21781;BME280;52576;53.614;9.894;2023-12-22T03:45:00;98690.22;;;1.85;92.05
21781;BME280;52576;53.614;9.894;2023-12-22T03:47:05;98684.03;;;1.88;92.02
21781;BME280;52576;53.614;9.894;2023-12-22T03:49:07;98673.50;;;1.91;92.22
21781;BME280;52576;53.614;9.894;2023-12-22T03:51:10;98671.47;;;1.96;91.86
21781;BME280;52576;53.614;9.894;2023-12-22T03:53:13;98672.91;;;2.00;91.90
21781;BME280;52576;53.614;9.894;2023-12-22T03:55:16;98677.88;;;2.03;91.82
21781;BME280;52576;53.614;9.894;2023-12-22T03:57:20;98670.63;;;2.08;91.77
21781;BME280;52576;53.614;9.894;2023-12-22T03:59:23;98688.44;;;2.13;91.48
21781;BME280;52576;53.614;9.894;2023-12-22T04:01:26;98660.63;;;2.16;91.37
21781;BME280;52576;53.614;9.894;2023-12-22T04:03:30;98662.00;;;2.22;91.27
21781;BME280;52576;53.614;9.894;2023-12-22T04:05:33;98665.94;;;2.27;91.50
21781;BME280;52576;53.614;9.894;2023-12-22T04:07:36;98661.16;;;2.34;91.19
21781;BME280;52576;53.614;9.894;2023-12-22T04:09:40;98658.91;;;2.42;91.44
21781;BME280;52576;53.614;9.894;2023-12-22T04:11:43;98667.81;;;2.51;91.50
21781;BME280;52576;53.614;9.894;2023-12-22T04:13:45;98660.38;;;2.59;91.75
21781;BME280;52576;53.614;9.894;2023-12-22T04:15:48;98661.59;;;2.66;91.53
21781;BME280;52576;53.614;9.894;2023-12-22T04:17:51;98654.34;;;2.71;91.27
21781;BME280;52576;53.614;9.894;2023-12-22T04:19:55;98667.81;;;2.76;91.32
21781;BME280;52576;53.614;9.894;2023-12-22T04:21:58;98658.91;;;2.80;91.32
21781;BME280;52576;53.614;9.894;2023-12-22T04:24:01;98656.84;;;2.85;91.16
21781;BME280;52576;53.614;9.894;2023-12-22T04:26:04;98660.13;;;2.87;90.92
21781;BME280;52576;53.614;9.894;2023-12-22T04:28:06;98653.81;;;2.91;90.84
21781;BME280;52576;53.614;9.894;2023-12-22T04:30:10;98655.34;;;2.94;90.29
21781;BME280;52576;53.614;9.894;2023-12-22T04:32:13;98655.16;;;2.97;89.80
21781;BME280;52576;53.614;9.894;2023-12-22T04:34:16;98660.94;;;3.00;89.37
21781;BME280;52576;53.614;9.894;2023-12-22T04:36:19;98678.84;;;3.03;89.34
21781;BME280;52576;53.614;9.894;2023-12-22T04:38:22;98665.69;;;3.06;88.97
21781;BME280;52576;53.614;9.894;2023-12-22T04:40:24;98663.63;;;3.12;88.55
21781;BME280;52576;53.614;9.894;2023-12-22T04:42:29;98666.91;;;3.14;88.25
21781;BME280;52576;53.614;9.894;2023-12-22T04:44:31;98698.69;;;3.16;88.12
21781;BME280;52576;53.614;9.894;2023-12-22T04:46:34;98645.03;;;3.18;87.78
21781;BME280;52576;53.614;9.894;2023-12-22T04:48:37;98659.44;;;3.22;86.66
21781;BME280;52576;53.614;9.894;2023-12-22T04:50:40;98667.72;;;3.27;86.35
21781;BME280;52576;53.614;9.894;2023-12-22T04:52:44;98661.50;;;3.29;86.09
21781;BME280;52576;53.614;9.894;2023-12-22T04:54:47;98674.31;;;3.31;85.80
21781;BME280;52576;53.614;9.894;2023-12-22T04:56:49;98686.13;;;3.35;85.66
21781;BME280;52576;53.614;9.894;2023-12-22T04:58:52;98671.06;;;3.40;84.42
21781;BME280;52576;53.614;9.894;2023-12-22T05:00:56;98664.75;;;3.44;84.37
21781;BME280;52576;53.614;9.894;2023-12-22T05:02:59;98690.44;;;3.47;84.34
21781;BME280;52576;53.614;9.894;2023-12-22T05:05:02;98682.88;;;3.44;84.45
21781;BME280;52576;53.614;9.894;2023-12-22T05:07:05;98702.25;;;3.38;84.54
21781;BME280;52576;53.614;9.894;2023-12-22T05:09:10;98727.78;;;3.32;85.03
21781;BME280;52576;53.614;9.894;2023-12-22T05:11:14;98726.75;;;3.22;85.06
21781;BME280;52576;53.614;9.894;2023-12-22T05:13:17;98744.06;;;3.09;85.91
21781;BME280;52576;53.614;9.894;2023-12-22T05:15:20;98736.28;;;2.96;86.44
21781;BME280;52576;53.614;9.894;2023-12-22T05:17:22;98717.28;;;2.84;86.84
21781;BME280;52576;53.614;9.894;2023-12-22T05:19:25;98697.38;;;2.72;86.80
21781;BME280;52576;53.614;9.894;2023-12-22T05:21:28;98709.38;;;2.60;87.07
21781;BME280;52576;53.614;9.894;2023-12-22T05:23:32;98700.69;;;2.49;87.25
21781;BME280;52576;53.614;9.894;2023-12-22T05:25:36;98690.13;;;2.39;87.69
21781;BME280;52576;53.614;9.894;2023-12-22T05:27:39;98688.28;;;2.28;88.05
21781;BME280;52576;53.614;9.894;2023-12-22T05:29:44;98694.03;;;2.19;88.60
21781;BME280;52576;53.614;9.894;2023-12-22T05:31:47;98711.59;;;2.14;89.16
21781;BME280;52576;53.614;9.894;2023-12-22T05:33:51;98708.28;;;2.12;89.49
21781;BME280;52576;53.614;9.894;2023-12-22T05:35:54;98746.13;;;2.13;90.30
21781;BME280;52576;53.614;9.894;2023-12-22T05:37:56;98741.78;;;2.14;90.82
21781;BME280;52576;53.614;9.894;2023-12-22T05:39:59;98770.09;;;2.15;91.30
21781;BME280;52576;53.614;9.894;2023-12-22T05:42:04;98785.81;;;2.12;91.52
21781;BME280;52576;53.614;9.894;2023-12-22T05:44:07;98770.91;;;2.03;91.50
21781;BME280;52576;53.614;9.894;2023-12-22T05:46:10;98774.16;;;1.92;91.39
21781;BME280;52576;53.614;9.894;2023-12-22T05:48:13;98774.13;;;1.80;91.45
21781;BME280;52576;53.614;9.894;2023-12-22T05:50:17;98781.69;;;1.68;91.67
21781;BME280;52576;53.614;9.894;2023-12-22T05:52:19;98770.25;;;1.58;91.79
21781;BME280;52576;53.614;9.894;2023-12-22T05:54:22;98777.69;;;1.50;91.79
21781;BME280;52576;53.614;9.894;2023-12-22T05:56:27;98767.91;;;1.41;92.17
21781;BME280;52576;53.614;9.894;2023-12-22T05:58:31;98790.75;;;1.33;92.19
21781;BME280;52576;53.614;9.894;2023-12-22T06:00:34;98810.16;;;1.26;92.23
21781;BME280;52576;53.614;9.894;2023-12-22T06:02:38;98802.75;;;1.20;92.42
21781;BME280;52576;53.614;9.894;2023-12-22T06:04:41;98799.72;;;1.13;92.74
21781;BME280;52576;53.614;9.894;2023-12-22T06:06:44;98804.22;;;1.10;92.97
21781;BME280;52576;53.614;9.894;2023-12-22T06:08:47;98794.81;;;1.09;92.96
21781;BME280;52576;53.614;9.894;2023-12-22T06:10:50;98800.81;;;1.09;92.94
21781;BME280;52576;53.614;9.894;2023-12-22T06:12:53;98792.16;;;1.10;93.26
21781;BME280;52576;53.614;9.894;2023-12-22T06:14:58;98798.88;;;1.13;93.51
21781;BME280;52576;53.614;9.894;2023-12-22T06:17:01;98798.88;;;1.13;93.42
21781;BME280;52576;53.614;9.894;2023-12-22T06:19:04;98791.06;;;1.14;93.46
21781;BME280;52576;53.614;9.894;2023-12-22T06:21:08;98783.97;;;1.18;93.42
21781;BME280;52576;53.614;9.894;2023-12-22T06:23:11;98778.53;;;1.22;93.30
21781;BME280;52576;53.614;9.894;2023-12-22T06:25:15;98801.47;;;1.27;93.34
21781;BME280;52576;53.614;9.894;2023-12-22T06:27:18;98798.50;;;1.33;93.35
21781;BME280;52576;53.614;9.894;2023-12-22T06:29:21;98798.88;;;1.41;93.14
21781;BME280;52576;53.614;9.894;2023-12-22T06:31:26;98812.16;;;1.49;93.05
21781;BME280;52576;53.614;9.894;2023-12-22T06:33:29;98813.41;;;1.56;92.50
21781;BME280;52576;53.614;9.894;2023-12-22T06:35:31;98813.78;;;1.64;92.04
21781;BME280;52576;53.614;9.894;2023-12-22T06:37:35;98820.16;;;1.73;91.72
21781;BME280;52576;53.614;9.894;2023-12-22T06:39:38;98815.44;;;1.80;91.14
21781;BME280;52576;53.614;9.894;2023-12-22T06:41:42;98822.59;;;1.89;89.78
21781;BME280;52576;53.614;9.894;2023-12-22T06:43:45;98843.81;;;1.94;88.27
21781;BME280;52576;53.614;9.894;2023-12-22T06:45:47;98813.16;;;2.02;88.62
21781;BME280;52576;53.614;9.894;2023-12-22T06:47:51;98817.84;;;2.10;87.50
21781;BME280;52576;53.614;9.894;2023-12-22T06:49:54;98821.78;;;2.15;86.80
21781;BME280;52576;53.614;9.894;2023-12-22T06:51:57;98813.66;;;2.21;86.45
21781;BME280;52576;53.614;9.894;2023-12-22T06:54:00;98819.38;;;2.26;85.68
21781;BME280;52576;53.614;9.894;2023-12-22T06:56:14;98847.41;;;2.32;85.62
21781;BME280;52576;53.614;9.894;2023-12-22T06:58:16;98835.84;;;2.38;85.58
21781;BME280;52576;53.614;9.894;2023-12-22T07:00:20;98839.88;;;2.42;85.37
21781;BME280;52576;53.614;9.894;2023-12-22T07:02:23;98843.00;;;2.47;85.44
21781;BME280;52576;53.614;9.894;2023-12-22T07:04:28;98847.16;;;2.50;85.21
21781;BME280;52576;53.614;9.894;2023-12-22T07:06:32;98852.13;;;2.53;84.99
21781;BME280;52576;53.614;9.894;2023-12-22T07:08:35;98842.44;;;2.56;85.16
21781;BME280;52576;53.614;9.894;2023-12-22T07:10:37;98848.22;;;2.60;84.86
21781;BME280;52576;53.614;9.894;2023-12-22T07:12:40;98848.84;;;2.63;84.11
21781;BME280;52576;53.614;9.894;2023-12-22T07:14:44;98839.97;;;2.67;83.39
21781;BME280;52576;53.614;9.894;2023-12-22T07:16:48;98845.75;;;2.71;83.77
21781;BME280;52576;53.614;9.894;2023-12-22T07:18:50;98849.06;;;2.73;83.14
21781;BME280;52576;53.614;9.894;2023-12-22T07:20:54;98870.50;;;2.75;83.29
21781;BME280;52576;53.614;9.894;2023-12-22T07:22:58;98860.06;;;2.77;82.86
21781;BME280;52576;53.614;9.894;2023-12-22T07:25:01;98892.66;;;2.79;82.83
21781;BME280;52576;53.614;9.894;2023-12-22T07:27:04;98880.25;;;2.84;82.43
21781;BME280;52576;53.614;9.894;2023-12-22T07:29:07;98889.47;;;2.88;82.17
21781;BME280;52576;53.614;9.894;2023-12-22T07:31:10;98904.78;;;2.91;82.30
21781;BME280;52576;53.614;9.894;2023-12-22T07:33:15;98909.78;;;2.94;81.88
21781;BME280;52576;53.614;9.894;2023-12-22T07:35:18;98908.66;;;2.98;81.79
21781;BME280;52576;53.614;9.894;2023-12-22T07:37:23;98975.63;;;3.03;81.88
21781;BME280;52576;53.614;9.894;2023-12-22T07:39:26;98947.06;;;3.04;82.83
21781;BME280;52576;53.614;9.894;2023-12-22T07:41:29;98932.88;;;2.97;83.21
21781;BME280;52576;53.614;9.894;2023-12-22T07:43:32;98939.53;;;2.87;84.18
21781;BME280;52576;53.614;9.894;2023-12-22T07:45:36;98962.91;;;2.73;84.64
21781;BME280;52576;53.614;9.894;2023-12-22T07:47:40;98954.16;;;2.61;84.76
21781;BME280;52576;53.614;9.894;2023-12-22T07:49:42;98959.28;;;2.49;85.53
21781;BME280;52576;53.614;9.894;2023-12-22T07:51:47;98961.50;;;2.41;85.91
21781;BME280;52576;53.614;9.894;2023-12-22T07:53:54;98977.28;;;2.36;86.24
21781;BME280;52576;53.614;9.894;2023-12-22T07:55:57;98977.50;;;2.33;86.61
21781;BME280;52576;53.614;9.894;2023-12-22T07:58:01;98978.44;;;2.32;86.53
21781;BME280;52576;53.614;9.894;2023-12-22T08:00:07;98980.91;;;2.33;86.82
21781;BME280;52576;53.614;9.894;2023-12-22T08:02:14;98983.38;;;2.35;87.15
21781;BME280;52576;53.614;9.894;2023-12-22T08:04:16;98995.19;;;2.39;87.10
21781;BME280;52576;53.614;9.894;2023-12-22T08:06:19;99008.88;;;2.41;87.31
21781;BME280;52576;53.614;9.894;2023-12-22T08:08:22;98999.53;;;2.38;87.29
21781;BME280;52576;53.614;9.894;2023-12-22T08:10:26;99017.13;;;2.33;87.28
21781;BME280;52576;53.614;9.894;2023-12-22T08:12:30;99015.81;;;2.26;87.68
21781;BME280;52576;53.614;9.894;2023-12-22T08:14:34;99011.38;;;2.14;88.64
21781;BME280;52576;53.614;9.894;2023-12-22T08:16:37;98974.28;;;2.01;89.39
21781;BME280;52576;53.614;9.894;2023-12-22T08:18:40;99015.59;;;1.87;89.64
21781;BME280;52576;53.614;9.894;2023-12-22T08:20:43;99011.34;;;1.72;89.88
21781;BME280;52576;53.614;9.894;2023-12-22T08:22:49;99004.31;;;1.59;90.09
21781;BME280;52576;53.614;9.894;2023-12-22T08:24:55;99003.22;;;1.49;90.38
21781;BME280;52576;53.614;9.894;2023-12-22T08:26:59;99016.47;;;1.43;90.83
21781;BME280;52576;53.614;9.894;2023-12-22T08:29:02;99019.38;;;1.37;91.61
21781;BME280;52576;53.614;9.894;2023-12-22T08:31:05;99025.56;;;1.34;91.92
21781;BME280;52576;53.614;9.894;2023-12-22T08:33:09;99011.06;;;1.32;92.16
21781;BME280;52576;53.614;9.894;2023-12-22T08:35:12;99019.72;;;1.31;92.75
21781;BME280;52576;53.614;9.894;2023-12-22T08:37:16;99003.22;;;1.33;93.01
21781;BME280;52576;53.614;9.894;2023-12-22T08:39:19;99008.06;;;1.40;93.32
21781;BME280;52576;53.614;9.894;2023-12-22T08:41:23;98996.38;;;1.48;93.64
21781;BME280;52576;53.614;9.894;2023-12-22T08:43:27;99016.47;;;1.57;93.76
21781;BME280;52576;53.614;9.894;2023-12-22T08:45:30;99015.94;;;1.66;93.43
21781;BME280;52576;53.614;9.894;2023-12-22T08:47:33;99032.59;;;1.77;92.78
21781;BME280;52576;53.614;9.894;2023-12-22T08:49:35;99016.34;;;1.89;91.55
21781;BME280;52576;53.614;9.894;2023-12-22T08:51:39;99020.81;;;2.01;91.00
21781;BME280;52576;53.614;9.894;2023-12-22T08:53:43;99042.41;;;2.14;89.71
21781;BME280;52576;53.614;9.894;2023-12-22T08:55:45;99021.16;;;2.23;88.29
21781;BME280;52576;53.614;9.894;2023-12-22T08:57:49;99027.63;;;2.30;87.19
21781;BME280;52576;53.614;9.894;2023-12-22T09:00:05;99032.63;;;2.33;86.02
21781;BME280;52576;53.614;9.894;2023-12-22T09:02:09;99023.91;;;2.34;85.47
21781;BME280;52576;53.614;9.894;2023-12-22T09:04:12;99026.41;;;2.36;85.19
21781;BME280;52576;53.614;9.894;2023-12-22T09:06:17;99028.91;;;2.37;83.67
21781;BME280;52576;53.614;9.894;2023-12-22T09:08:21;99036.38;;;2.42;84.17
21781;BME280;52576;53.614;9.894;2023-12-22T09:10:24;99020.50;;;2.48;83.84
21781;BME280;52576;53.614;9.894;2023-12-22T09:12:27;99043.50;;;2.53;83.34
21781;BME280;52576;53.614;9.894;2023-12-22T09:14:30;99036.00;;;2.62;82.16
21781;BME280;52576;53.614;9.894;2023-12-22T09:16:35;99032.00;;;2.71;81.26
21781;BME280;52576;53.614;9.894;2023-12-22T09:18:38;99040.03;;;2.81;81.24
21781;BME280;52576;53.614;9.894;2023-12-22T09:20:41;99037.69;;;2.90;80.44
21781;BME280;52576;53.614;9.894;2023-12-22T09:22:44;99047.47;;;2.99;79.46
21781;BME280;52576;53.614;9.894;2023-12-22T09:24:47;99059.94;;;3.07;79.14
21781;BME280;52576;53.614;9.894;2023-12-22T09:26:51;99033.44;;;3.16;78.49
21781;BME280;52576;53.614;9.894;2023-12-22T09:28:55;99052.94;;;3.22;76.79
21781;BME280;52576;53.614;9.894;2023-12-22T09:30:58;99038.69;;;3.29;75.98
21781;BME280;52576;53.614;9.894;2023-12-22T09:33:02;99055.50;;;3.36;75.78
21781;BME280;52576;53.614;9.894;2023-12-22T09:35:06;99047.28;;;3.42;75.27
21781;BME280;52576;53.614;9.894;2023-12-22T09:37:09;99044.31;;;3.48;75.12
21781;BME280;52576;53.614;9.894;2023-12-22T09:39:13;99061.31;;;3.52;74.91
21781;BME280;52576;53.614;9.894;2023-12-22T09:41:18;99055.94;;;3.55;74.47
21781;BME280;52576;53.614;9.894;2023-12-22T09:43:22;99082.56;;;3.57;74.24
21781;BME280;52576;53.614;9.894;2023-12-22T09:45:26;99073.88;;;3.58;74.10
21781;BME280;52576;53.614;9.894;2023-12-22T09:47:30;99065.09;;;3.61;74.22
21781;BME280;52576;53.614;9.894;2023-12-22T09:49:39;99050.28;;;3.63;73.91
21781;BME280;52576;53.614;9.894;2023-12-22T09:51:44;99070.88;;;3.64;74.01
21781;BME280;52576;53.614;9.894;2023-12-22T09:53:49;99093.97;;;3.67;74.26
21781;BME280;52576;53.614;9.894;2023-12-22T09:55:53;99068.81;;;3.69;74.36
21781;BME280;52576;53.614;9.894;2023-12-22T09:57:58;99076.47;;;3.71;73.95
21781;BME280;52576;53.614;9.894;2023-12-22T10:00:02;99070.28;;;3.73;73.86
21781;BME280;52576;53.614;9.894;2023-12-22T10:02:08;99053.78;;;3.74;73.55
21781;BME280;52576;53.614;9.894;2023-12-22T10:04:11;99057.13;;;3.77;73.64
21781;BME280;52576;53.614;9.894;2023-12-22T10:06:16;99059.72;;;3.77;73.89
21781;BME280;52576;53.614;9.894;2023-12-22T10:08:20;99058.78;;;3.78;73.87
21781;BME280;52576;53.614;9.894;2023-12-22T10:10:23;99061.38;;;3.78;74.12
21781;BME280;52576;53.614;9.894;2023-12-22T10:12:29;99073.41;;;3.79;74.18
21781;BME280;52576;53.614;9.894;2023-12-22T10:14:33;99070.72;;;3.80;74.26
21781;BME280;52576;53.614;9.894;2023-12-22T10:16:41;99086.88;;;3.84;74.64
21781;BME280;52576;53.614;9.894;2023-12-22T10:18:44;99081.50;;;3.87;74.68
21781;BME280;52576;53.614;9.894;2023-12-22T10:20:49;99077.75;;;3.91;74.72
21781;BME280;52576;53.614;9.894;2023-12-22T10:22:53;99063.66;;;3.95;75.07
21781;BME280;52576;53.614;9.894;2023-12-22T10:24:58;99059.09;;;3.98;75.13
21781;BME280;52576;53.614;9.894;2023-12-22T10:27:02;99064.91;;;4.02;75.14
21781;BME280;52576;53.614;9.894;2023-12-22T10:29:05;99066.38;;;4.06;75.41
21781;BME280;52576;53.614;9.894;2023-12-22T10:31:11;99070.44;;;4.10;75.26
21781;BME280;52576;53.614;9.894;2023-12-22T10:33:14;99087.53;;;4.13;75.42
21781;BME280;52576;53.614;9.894;2023-12-22T10:35:17;99083.91;;;4.15;75.76
21781;BME280;52576;53.614;9.894;2023-12-22T10:37:20;99078.84;;;4.14;75.82
21781;BME280;52576;53.614;9.894;2023-12-22T10:39:26;99065.44;;;4.07;76.54
21781;BME280;52576;53.614;9.894;2023-12-22T10:41:32;99119.13;;;3.92;76.20
21781;BME280;52576;53.614;9.894;2023-12-22T10:43:38;99092.84;;;3.71;76.65
21781;BME280;52576;53.614;9.894;2023-12-22T10:45:42;99122.75;;;3.50;77.47
21781;BME280;52576;53.614;9.894;2023-12-22T10:47:45;99118.84;;;3.30;78.33
21781;BME280;52576;53.614;9.894;2023-12-22T10:49:52;99099.28;;;3.12;79.51
21781;BME280;52576;53.614;9.894;2023-12-22T10:51:56;99113.09;;;2.98;80.44
21781;BME280;52576;53.614;9.894;2023-12-22T10:53:59;99104.31;;;2.87;81.57
21781;BME280;52576;53.614;9.894;2023-12-22T10:56:04;99098.72;;;2.80;82.46
21781;BME280;52576;53.614;9.894;2023-12-22T10:58:08;99098.91;;;2.77;83.22
21781;BME280;52576;53.614;9.894;2023-12-22T11:00:15;99098.91;;;2.77;84.00
21781;BME280;52576;53.614;9.894;2023-12-22T11:02:19;99110.91;;;2.78;84.47
21781;BME280;52576;53.614;9.894;2023-12-22T11:04:22;99102.22;;;2.79;84.77